Terminal Aerodrome Forecast
Issued by NWS

Home | Current Version | Previous Version | Text Only | Print | Product List | Glossary On
Versions: 1 2 3 4 5 6 7 8 9 10 11 12 13 14 15 16 17 18
000
FTUS43 KOAX 010500
TAFCDR
TAF
KCDR 010540Z 0106/0206 29005KT P6SM BKN100 BKN200
     FM011800 33010KT P6SM BKN050 OVC090
     FM020200 33005KT P6SM VCSH BKN040 OVC080=

USA.gov is the U.S. government's official web portal to all federal, state and local government web resources and services.